Portada
METAR-TAF:

METAR-TAF

Aeroports :

Hamadan, Iran

latitud: 34-52-05N, longitud: 048-33-08E, altitud: 1757 m

Observació

L'informe es va fer fa 38 minuts, a les 22:00 UTC
Vent 2 kt del Nord-Oest
Temperatura -1°C
Humitat 69%
Pressió 1024 hPa
Visibilitat 10 km o més
sense núvols per sota de 1500 mi sense presència de cumulonimbus.

METAR: OIHH 132200Z 31002KT CAVOK M01/M06 Q1023 A3023

Hora: 02:08 (22:38 UTC)


TAF: manca

Observacions i pronòstics meteorològics de més de 4000 aeroports (METAR i TAF).

Les estacions disponibles són els punts grocs i vermells al mapa.

Posi el ratolí al punt desitjat per veure el nom de l'estació.

Feu clic per veure les observacions i els pronòstics meteorològics.

Per canviar el mapa: feu clic els botons verds amb una creu de color negre per apropar; al botó verd amb un guió per allunyar la imatge; o en les fletxes verdes per a mapes adjacents.


METAR-TAF: